• Join FlightAware (Why Join?)
  • Login
  • US Flag 
05:44AM EST


 

Airport Tracker/Info


-or-


 

Live Flight TrackerFlight Track Log ✈ DAL6057 ✈ 12-Apr-2013 ✈ KCMH - KDTW

Flight Track Log - Related Links

Times and Time Zones

All times are in EDT time to prevent confusion due to time zone crossing. See the DAL6057 flight status page for this flight to view local times or setup timezone preferences in your user account.

Time Position Orientation Groundspeed Altitude Reporting Facility
EDT Latitude Longitude Course Direction KTS MPH feet Rate Location/Type
06:45AM 40.0022 -82.9156 274° West 153 176 1,500  Level Indianapolis Center
06:46AM 40.0039 -82.9511 274° West 158 182 2,600 1,740 Climbing Indianapolis Center
06:46AM 40.0064 -82.9928 274° West 173 199 3,800 2,100 Climbing Indianapolis Center
06:47AM 40.0117 -83.0228 283° West 209 241 4,700 2,460 Climbing Indianapolis Center
06:47AM 40.0461 -83.0356 344° North 218 251 6,300 2,340 Climbing Indianapolis Center
06:48AM 40.0667 -83.0128 40° Northeast 266 306 7,100 1,920 Climbing Indianapolis Center
06:48AM 40.1003 -82.9703 44° Northeast 262 302 8,300 1,560 Climbing Indianapolis Center
06:49AM 40.1608 -82.8986 42° Northeast 287 330 9,800 1,440 Climbing Indianapolis Center
06:50AM 40.2297 -82.8150 43° Northeast 329 379 11,300 1,260 Climbing Indianapolis Center
06:52AM 40.3119 -82.7189 42° Northeast 356 410 12,400 1,320 Climbing Indianapolis Center
06:53AM 40.3931 -82.6222 42° Northeast 387 445 14,000 1,320 Climbing Indianapolis Center
06:54AM 40.4886 -82.5586 27° Northeast 387 445 15,100 540 Climbing Indianapolis Center
06:55AM 40.5933 -82.5108 19° North 394 453 15,100  Level Indianapolis Center
06:55AM 40.6664 -82.4772 19° North 390 449 15,100  Level Cleveland Center
06:56AM 40.7714 -82.4311 18° North 390 449 15,100 -60 Level Cleveland Center
06:57AM 40.8761 -82.4039 11° North 383 441 15,000 -60 Descending Cleveland Center
06:58AM 40.9808 -82.3736 12° North 378 435 15,000  Level Cleveland Center
06:59AM 41.0875 -82.3464 11° North 378 435 15,000  Level Cleveland Center
07:00AM 41.1858 -82.3186 12° North 390 449 15,000  Level Cleveland Center
07:01AM 41.2928 -82.2883 12° North 392 451 15,000 -60 Level Cleveland Center
07:02AM 41.3994 -82.2606 11° North 392 451 14,900 -600 Descending Cleveland Center
07:03AM 41.5061 -82.2272 13° North 392 451 13,900 -960 Descending Cleveland Center
07:04AM 41.6147 -82.2272 360° North 362 417 13,000 -480 Descending Cleveland Center
07:05AM 41.6486 -82.3256 295° West 262 302 13,000 -180 Level Cleveland Center
07:06AM 41.6636 -82.4258 281° West 262 302 12,700 -480 Descending Cleveland Center
07:07AM 41.6808 -82.5264 283° West 274 315 12,100 -480 Descending Cleveland Center
07:08AM 41.6906 -82.5686 287° West 281 323 12,100  Level Cleveland Center
07:08AM 41.6978 -82.6328 279° West 284 327 12,100  Level Cleveland Center
07:09AM 41.7167 -82.7364 284° West 284 327 12,100 -60 Level Cleveland Center
07:10AM 41.7544 -82.8267 299° West 284 327 12,000 -960 Descending Cleveland Center
07:11AM 41.8069 -82.9119 310° West 284 327 10,300 -1,620 Descending Cleveland Center
07:12AM 41.8472 -82.9917 304° West 259 298 8,900 -1,500 Descending Cleveland Center
07:13AM 41.8700 -83.0844 288° West 254 292 7,300 -1,620 Descending Cleveland Center
07:13AM 41.8700 -83.0844 288° West 266 306 7,300 -1,200 Level Cleveland Center
07:14AM 41.8911 -83.1744 288° West 260 299 6,100 -600 Descending Cleveland Center
07:15AM 41.9081 -83.2478 287° West 246 283 6,100 -360 Level Cleveland Center
07:16AM 41.9353 -83.3325 293° West 241 277 5,400 -960 Descending Cleveland Center
07:17AM 41.9511 -83.3669 302° West 251 289 4,900 -1,620 Descending Cleveland Center
07:17AM 41.9769 -83.4183 304° West 241 277 3,800 -1,020 Descending Cleveland Center
07:18AM 42.0514 -83.4467 344° North 252 290 3,100 -600 Descending Cleveland Center
07:19AM 42.1169 -83.4133 21° North 227 261 2,500 -840 Descending Cleveland Center
07:20AM 42.1594 -83.3786 31° Northeast 145 167 1,500 -1,020 Descending Cleveland Center